sensor_id;sensor_type;location;lat;lon;timestamp;temperature;humidity
53978;DHT22;39886;47.984;-1.586;2023-06-26T00:00:42;27.00;58.50
53978;DHT22;39886;47.984;-1.586;2023-06-26T00:03:07;27.00;58.50
53978;DHT22;39886;47.984;-1.586;2023-06-26T00:05:33;26.90;58.50
53978;DHT22;39886;47.984;-1.586;2023-06-26T00:07:59;26.90;58.50
53978;DHT22;39886;47.984;-1.586;2023-06-26T00:10:26;26.90;58.50
53978;DHT22;39886;47.984;-1.586;2023-06-26T00:12:53;26.90;58.60
53978;DHT22;39886;47.984;-1.586;2023-06-26T00:15:19;26.90;58.50
53978;DHT22;39886;47.984;-1.586;2023-06-26T00:17:45;26.90;58.60
53978;DHT22;39886;47.984;-1.586;2023-06-26T00:20:11;26.90;58.70
53978;DHT22;39886;47.984;-1.586;2023-06-26T00:22:36;26.90;58.60
53978;DHT22;39886;47.984;-1.586;2023-06-26T00:25:06;26.90;58.70
53978;DHT22;39886;47.984;-1.586;2023-06-26T00:27:32;26.90;58.70
53978;DHT22;39886;47.984;-1.586;2023-06-26T00:29:58;26.80;58.60
53978;DHT22;39886;47.984;-1.586;2023-06-26T00:32:23;26.80;58.60
53978;DHT22;39886;47.984;-1.586;2023-06-26T00:34:49;26.80;58.60
53978;DHT22;39886;47.984;-1.586;2023-06-26T00:37:15;26.80;58.50
53978;DHT22;39886;47.984;-1.586;2023-06-26T00:39:41;26.80;58.70
53978;DHT22;39886;47.984;-1.586;2023-06-26T00:42:06;26.80;58.70
53978;DHT22;39886;47.984;-1.586;2023-06-26T00:44:32;26.80;58.70
53978;DHT22;39886;47.984;-1.586;2023-06-26T00:46:58;26.80;58.70
53978;DHT22;39886;47.984;-1.586;2023-06-26T00:49:25;26.80;58.70
53978;DHT22;39886;47.984;-1.586;2023-06-26T00:51:51;26.80;58.80
53978;DHT22;39886;47.984;-1.586;2023-06-26T00:54:17;26.80;58.70
53978;DHT22;39886;47.984;-1.586;2023-06-26T00:56:46;26.80;58.80
53978;DHT22;39886;47.984;-1.586;2023-06-26T00:59:15;26.80;58.80
53978;DHT22;39886;47.984;-1.586;2023-06-26T01:01:40;26.80;58.80
53978;DHT22;39886;47.984;-1.586;2023-06-26T01:04:06;26.70;58.80
53978;DHT22;39886;47.984;-1.586;2023-06-26T01:06:33;26.70;58.80
53978;DHT22;39886;47.984;-1.586;2023-06-26T01:09:02;26.70;58.80
53978;DHT22;39886;47.984;-1.586;2023-06-26T01:11:28;26.70;58.80
53978;DHT22;39886;47.984;-1.586;2023-06-26T01:13:54;26.70;58.80
53978;DHT22;39886;47.984;-1.586;2023-06-26T01:16:23;26.70;58.80
53978;DHT22;39886;47.984;-1.586;2023-06-26T01:18:49;26.70;58.80
53978;DHT22;39886;47.984;-1.586;2023-06-26T01:21:16;26.70;58.80
53978;DHT22;39886;47.984;-1.586;2023-06-26T01:26:32;26.70;58.90
53978;DHT22;39886;47.984;-1.586;2023-06-26T01:29:02;26.60;58.80
53978;DHT22;39886;47.984;-1.586;2023-06-26T01:31:29;26.60;58.80
53978;DHT22;39886;47.984;-1.586;2023-06-26T01:33:58;26.60;58.80
53978;DHT22;39886;47.984;-1.586;2023-06-26T01:36:25;26.60;58.80
53978;DHT22;39886;47.984;-1.586;2023-06-26T01:38:50;26.60;58.90
53978;DHT22;39886;47.984;-1.586;2023-06-26T01:41:17;26.60;58.90
53978;DHT22;39886;47.984;-1.586;2023-06-26T01:49:25;26.60;58.90
53978;DHT22;39886;47.984;-1.586;2023-06-26T01:54:37;26.50;58.90
53978;DHT22;39886;47.984;-1.586;2023-06-26T01:57:04;26.50;58.90
53978;DHT22;39886;47.984;-1.586;2023-06-26T01:59:32;26.50;58.90
53978;DHT22;39886;47.984;-1.586;2023-06-26T02:02:01;26.50;58.90
53978;DHT22;39886;47.984;-1.586;2023-06-26T02:04:26;26.60;59.00
53978;DHT22;39886;47.984;-1.586;2023-06-26T02:06:52;26.50;58.90
53978;DHT22;39886;47.984;-1.586;2023-06-26T02:09:18;26.50;58.90
53978;DHT22;39886;47.984;-1.586;2023-06-26T02:11:44;26.50;59.00
53978;DHT22;39886;47.984;-1.586;2023-06-26T02:14:10;26.50;59.60
53978;DHT22;39886;47.984;-1.586;2023-06-26T02:16:36;26.50;59.00
53978;DHT22;39886;47.984;-1.586;2023-06-26T02:19:02;26.50;59.00
53978;DHT22;39886;47.984;-1.586;2023-06-26T02:21:27;26.50;59.00
53978;DHT22;39886;47.984;-1.586;2023-06-26T02:23:53;26.50;59.00
53978;DHT22;39886;47.984;-1.586;2023-06-26T02:26:19;26.40;58.90
53978;DHT22;39886;47.984;-1.586;2023-06-26T02:28:44;26.40;58.90
53978;DHT22;39886;47.984;-1.586;2023-06-26T02:31:10;26.40;58.90
53978;DHT22;39886;47.984;-1.586;2023-06-26T02:33:36;26.40;59.00
53978;DHT22;39886;47.984;-1.586;2023-06-26T02:36:02;26.40;59.00
53978;DHT22;39886;47.984;-1.586;2023-06-26T02:38:27;26.40;59.60
53978;DHT22;39886;47.984;-1.586;2023-06-26T02:40:53;26.40;59.00
53978;DHT22;39886;47.984;-1.586;2023-06-26T02:43:19;26.40;59.00
53978;DHT22;39886;47.984;-1.586;2023-06-26T02:45:44;26.40;59.00
53978;DHT22;39886;47.984;-1.586;2023-06-26T02:48:10;26.40;59.00
53978;DHT22;39886;47.984;-1.586;2023-06-26T02:50:36;26.40;59.10
53978;DHT22;39886;47.984;-1.586;2023-06-26T02:53:01;26.40;59.00
53978;DHT22;39886;47.984;-1.586;2023-06-26T02:55:27;26.30;59.00
53978;DHT22;39886;47.984;-1.586;2023-06-26T02:57:53;26.30;59.00
53978;DHT22;39886;47.984;-1.586;2023-06-26T03:00:19;26.30;59.10
53978;DHT22;39886;47.984;-1.586;2023-06-26T03:02:44;26.30;59.00
53978;DHT22;39886;47.984;-1.586;2023-06-26T03:05:10;26.30;59.10
53978;DHT22;39886;47.984;-1.586;2023-06-26T03:07:38;26.30;59.10
53978;DHT22;39886;47.984;-1.586;2023-06-26T03:10:04;26.30;59.10
53978;DHT22;39886;47.984;-1.586;2023-06-26T03:12:30;26.30;59.10
53978;DHT22;39886;47.984;-1.586;2023-06-26T03:14:56;26.30;59.10
53978;DHT22;39886;47.984;-1.586;2023-06-26T03:17:22;26.30;59.10
53978;DHT22;39886;47.984;-1.586;2023-06-26T03:19:47;26.30;59.10
53978;DHT22;39886;47.984;-1.586;2023-06-26T03:22:13;26.30;59.10
53978;DHT22;39886;47.984;-1.586;2023-06-26T03:24:39;26.30;59.10
53978;DHT22;39886;47.984;-1.586;2023-06-26T03:27:05;26.30;59.10
53978;DHT22;39886;47.984;-1.586;2023-06-26T03:29:31;26.20;59.10
53978;DHT22;39886;47.984;-1.586;2023-06-26T03:31:56;26.20;59.10
53978;DHT22;39886;47.984;-1.586;2023-06-26T03:34:22;26.20;59.10
53978;DHT22;39886;47.984;-1.586;2023-06-26T03:36:48;26.20;59.10
53978;DHT22;39886;47.984;-1.586;2023-06-26T03:39:13;26.20;59.10
53978;DHT22;39886;47.984;-1.586;2023-06-26T03:41:39;26.20;59.10
53978;DHT22;39886;47.984;-1.586;2023-06-26T03:44:05;26.20;59.10
53978;DHT22;39886;47.984;-1.586;2023-06-26T03:46:31;26.20;59.20
53978;DHT22;39886;47.984;-1.586;2023-06-26T03:48:56;26.20;59.10
53978;DHT22;39886;47.984;-1.586;2023-06-26T03:51:22;26.20;59.20
53978;DHT22;39886;47.984;-1.586;2023-06-26T03:53:48;26.20;59.20
53978;DHT22;39886;47.984;-1.586;2023-06-26T03:56:13;26.20;59.20
53978;DHT22;39886;47.984;-1.586;2023-06-26T03:58:39;26.20;59.20
53978;DHT22;39886;47.984;-1.586;2023-06-26T04:01:05;26.10;59.20
53978;DHT22;39886;47.984;-1.586;2023-06-26T04:03:31;26.10;59.20
53978;DHT22;39886;47.984;-1.586;2023-06-26T04:05:57;26.10;59.20
53978;DHT22;39886;47.984;-1.586;2023-06-26T04:08:24;26.10;59.20
53978;DHT22;39886;47.984;-1.586;2023-06-26T04:10:52;26.10;59.20
53978;DHT22;39886;47.984;-1.586;2023-06-26T04:13:18;26.10;59.20
53978;DHT22;39886;47.984;-1.586;2023-06-26T04:15:44;26.10;59.20
53978;DHT22;39886;47.984;-1.586;2023-06-26T04:18:09;26.10;59.20
53978;DHT22;39886;47.984;-1.586;2023-06-26T04:20:40;26.10;59.20
53978;DHT22;39886;47.984;-1.586;2023-06-26T04:23:06;26.10;59.20
53978;DHT22;39886;47.984;-1.586;2023-06-26T04:25:32;26.10;59.20
53978;DHT22;39886;47.984;-1.586;2023-06-26T04:27:57;26.10;59.20
53978;DHT22;39886;47.984;-1.586;2023-06-26T04:30:23;26.10;59.20
53978;DHT22;39886;47.984;-1.586;2023-06-26T04:32:49;26.00;59.20
53978;DHT22;39886;47.984;-1.586;2023-06-26T04:35:14;26.10;59.20
53978;DHT22;39886;47.984;-1.586;2023-06-26T04:37:40;26.10;59.20
53978;DHT22;39886;47.984;-1.586;2023-06-26T04:40:06;26.00;59.20
53978;DHT22;39886;47.984;-1.586;2023-06-26T04:42:35;26.00;59.90
53978;DHT22;39886;47.984;-1.586;2023-06-26T04:45:00;26.00;59.20
53978;DHT22;39886;47.984;-1.586;2023-06-26T04:47:28;26.00;59.10
53978;DHT22;39886;47.984;-1.586;2023-06-26T04:49:53;26.00;59.20
53978;DHT22;39886;47.984;-1.586;2023-06-26T04:52:20;26.00;59.20
53978;DHT22;39886;47.984;-1.586;2023-06-26T04:54:46;26.00;59.20
53978;DHT22;39886;47.984;-1.586;2023-06-26T04:57:12;26.00;59.20
53978;DHT22;39886;47.984;-1.586;2023-06-26T04:59:37;26.00;59.20
53978;DHT22;39886;47.984;-1.586;2023-06-26T05:02:03;26.00;59.20
53978;DHT22;39886;47.984;-1.586;2023-06-26T05:04:30;26.00;59.10
53978;DHT22;39886;47.984;-1.586;2023-06-26T05:06:56;26.00;59.10
53978;DHT22;39886;47.984;-1.586;2023-06-26T05:09:21;26.00;59.10
53978;DHT22;39886;47.984;-1.586;2023-06-26T05:11:47;26.10;59.20
53978;DHT22;39886;47.984;-1.586;2023-06-26T05:14:13;26.00;59.10
53978;DHT22;39886;47.984;-1.586;2023-06-26T05:16:39;26.10;59.20
53978;DHT22;39886;47.984;-1.586;2023-06-26T05:19:04;26.10;59.20
53978;DHT22;39886;47.984;-1.586;2023-06-26T05:21:30;26.10;59.10
53978;DHT22;39886;47.984;-1.586;2023-06-26T05:23:57;26.10;59.10
53978;DHT22;39886;47.984;-1.586;2023-06-26T05:26:23;26.10;59.10
53978;DHT22;39886;47.984;-1.586;2023-06-26T05:28:49;26.10;59.00
53978;DHT22;39886;47.984;-1.586;2023-06-26T05:31:16;26.10;59.00
53978;DHT22;39886;47.984;-1.586;2023-06-26T05:33:44;26.10;59.00
53978;DHT22;39886;47.984;-1.586;2023-06-26T05:36:13;26.20;59.00
53978;DHT22;39886;47.984;-1.586;2023-06-26T05:38:40;26.20;59.00
53978;DHT22;39886;47.984;-1.586;2023-06-26T05:41:06;26.20;59.00
53978;DHT22;39886;47.984;-1.586;2023-06-26T05:43:31;26.20;58.90
53978;DHT22;39886;47.984;-1.586;2023-06-26T05:45:57;26.20;58.80
53978;DHT22;39886;47.984;-1.586;2023-06-26T05:48:23;26.20;58.80
53978;DHT22;39886;47.984;-1.586;2023-06-26T05:50:49;26.30;58.90
53978;DHT22;39886;47.984;-1.586;2023-06-26T05:53:15;26.30;58.90
53978;DHT22;39886;47.984;-1.586;2023-06-26T05:55:41;26.30;58.80
53978;DHT22;39886;47.984;-1.586;2023-06-26T05:58:09;26.30;58.80
53978;DHT22;39886;47.984;-1.586;2023-06-26T06:00:35;26.30;58.70
53978;DHT22;39886;47.984;-1.586;2023-06-26T06:03:01;26.40;58.70
53978;DHT22;39886;47.984;-1.586;2023-06-26T06:05:27;26.40;58.70
53978;DHT22;39886;47.984;-1.586;2023-06-26T06:07:52;26.40;58.60
53978;DHT22;39886;47.984;-1.586;2023-06-26T06:10:18;26.40;58.60
53978;DHT22;39886;47.984;-1.586;2023-06-26T06:12:44;26.50;58.50
53978;DHT22;39886;47.984;-1.586;2023-06-26T06:15:10;26.50;58.50
53978;DHT22;39886;47.984;-1.586;2023-06-26T06:17:35;26.40;58.30
53978;DHT22;39886;47.984;-1.586;2023-06-26T06:20:01;26.30;57.30
53978;DHT22;39886;47.984;-1.586;2023-06-26T06:22:27;26.20;56.40
53978;DHT22;39886;47.984;-1.586;2023-06-26T06:24:53;26.10;56.30
53978;DHT22;39886;47.984;-1.586;2023-06-26T06:27:18;26.00;55.70
53978;DHT22;39886;47.984;-1.586;2023-06-26T06:29:44;25.90;55.40
53978;DHT22;39886;47.984;-1.586;2023-06-26T06:32:10;25.60;55.20
53978;DHT22;39886;47.984;-1.586;2023-06-26T06:34:35;25.00;55.60
53978;DHT22;39886;47.984;-1.586;2023-06-26T06:37:02;24.70;57.00
53978;DHT22;39886;47.984;-1.586;2023-06-26T06:39:28;24.80;57.20
53978;DHT22;39886;47.984;-1.586;2023-06-26T06:41:54;24.60;57.50
53978;DHT22;39886;47.984;-1.586;2023-06-26T06:44:19;24.50;56.60
53978;DHT22;39886;47.984;-1.586;2023-06-26T06:46:45;24.30;57.40
53978;DHT22;39886;47.984;-1.586;2023-06-26T06:49:11;24.20;57.40
53978;DHT22;39886;47.984;-1.586;2023-06-26T06:51:37;24.20;57.20
53978;DHT22;39886;47.984;-1.586;2023-06-26T06:54:02;24.20;56.90
53978;DHT22;39886;47.984;-1.586;2023-06-26T06:56:28;24.00;57.00
53978;DHT22;39886;47.984;-1.586;2023-06-26T06:58:54;24.00;57.60
53978;DHT22;39886;47.984;-1.586;2023-06-26T07:01:19;24.00;57.10
53978;DHT22;39886;47.984;-1.586;2023-06-26T07:03:45;24.10;56.90
53978;DHT22;39886;47.984;-1.586;2023-06-26T07:06:11;24.00;56.60
53978;DHT22;39886;47.984;-1.586;2023-06-26T07:08:36;24.00;56.70
53978;DHT22;39886;47.984;-1.586;2023-06-26T07:11:02;24.00;56.40
53978;DHT22;39886;47.984;-1.586;2023-06-26T07:13:28;23.90;56.70
53978;DHT22;39886;47.984;-1.586;2023-06-26T07:15:54;23.80;57.00
53978;DHT22;39886;47.984;-1.586;2023-06-26T07:18:20;23.90;56.80
53978;DHT22;39886;47.984;-1.586;2023-06-26T07:20:45;23.90;57.10
53978;DHT22;39886;47.984;-1.586;2023-06-26T07:23:11;24.00;57.10
53978;DHT22;39886;47.984;-1.586;2023-06-26T07:25:37;24.10;56.40
53978;DHT22;39886;47.984;-1.586;2023-06-26T07:28:02;24.00;56.10
53978;DHT22;39886;47.984;-1.586;2023-06-26T07:30:28;24.00;56.10
53978;DHT22;39886;47.984;-1.586;2023-06-26T07:32:54;24.00;56.10
53978;DHT22;39886;47.984;-1.586;2023-06-26T07:35:20;23.90;56.30
53978;DHT22;39886;47.984;-1.586;2023-06-26T07:37:45;23.90;56.20
53978;DHT22;39886;47.984;-1.586;2023-06-26T07:40:11;23.90;56.20
53978;DHT22;39886;47.984;-1.586;2023-06-26T07:42:38;23.80;56.30
53978;DHT22;39886;47.984;-1.586;2023-06-26T07:45:05;23.90;56.30
53978;DHT22;39886;47.984;-1.586;2023-06-26T07:47:36;24.00;55.70
53978;DHT22;39886;47.984;-1.586;2023-06-26T07:50:02;24.00;54.90
53978;DHT22;39886;47.984;-1.586;2023-06-26T07:52:28;24.10;55.10
53978;DHT22;39886;47.984;-1.586;2023-06-26T07:54:56;24.20;54.40
53978;DHT22;39886;47.984;-1.586;2023-06-26T07:57:22;24.10;54.50
53978;DHT22;39886;47.984;-1.586;2023-06-26T07:59:47;24.10;54.70
53978;DHT22;39886;47.984;-1.586;2023-06-26T08:02:13;24.20;54.40
53978;DHT22;39886;47.984;-1.586;2023-06-26T08:04:39;24.30;53.70
53978;DHT22;39886;47.984;-1.586;2023-06-26T08:07:05;24.10;53.70
53978;DHT22;39886;47.984;-1.586;2023-06-26T08:09:31;24.00;53.50
53978;DHT22;39886;47.984;-1.586;2023-06-26T08:11:58;24.00;54.10
53978;DHT22;39886;47.984;-1.586;2023-06-26T08:14:24;24.00;53.70
53978;DHT22;39886;47.984;-1.586;2023-06-26T08:16:50;24.00;53.40
53978;DHT22;39886;47.984;-1.586;2023-06-26T08:19:17;23.90;53.40
53978;DHT22;39886;47.984;-1.586;2023-06-26T08:21:44;24.10;52.70
53978;DHT22;39886;47.984;-1.586;2023-06-26T08:24:10;24.00;52.00
53978;DHT22;39886;47.984;-1.586;2023-06-26T08:26:37;24.00;52.40
53978;DHT22;39886;47.984;-1.586;2023-06-26T08:29:02;24.00;52.40
53978;DHT22;39886;47.984;-1.586;2023-06-26T08:31:37;23.90;52.50
53978;DHT22;39886;47.984;-1.586;2023-06-26T08:34:04;23.90;52.90
53978;DHT22;39886;47.984;-1.586;2023-06-26T08:36:30;24.10;52.70
53978;DHT22;39886;47.984;-1.586;2023-06-26T08:38:56;24.00;52.30
53978;DHT22;39886;47.984;-1.586;2023-06-26T08:41:22;24.00;52.10
53978;DHT22;39886;47.984;-1.586;2023-06-26T08:43:48;24.10;52.30
53978;DHT22;39886;47.984;-1.586;2023-06-26T08:46:16;24.20;51.60
53978;DHT22;39886;47.984;-1.586;2023-06-26T08:48:48;24.10;51.60
53978;DHT22;39886;47.984;-1.586;2023-06-26T08:51:17;24.10;52.00
53978;DHT22;39886;47.984;-1.586;2023-06-26T08:56:24;24.20;51.60
53978;DHT22;39886;47.984;-1.586;2023-06-26T08:58:50;24.20;51.30
53978;DHT22;39886;47.984;-1.586;2023-06-26T09:01:16;24.10;51.40
53978;DHT22;39886;47.984;-1.586;2023-06-26T09:03:43;24.10;51.30
53978;DHT22;39886;47.984;-1.586;2023-06-26T09:06:09;24.00;51.00
53978;DHT22;39886;47.984;-1.586;2023-06-26T09:08:35;24.00;50.90
53978;DHT22;39886;47.984;-1.586;2023-06-26T09:11:00;24.10;51.50
53978;DHT22;39886;47.984;-1.586;2023-06-26T09:13:29;24.10;50.90
53978;DHT22;39886;47.984;-1.586;2023-06-26T09:15:55;24.10;50.40
53978;DHT22;39886;47.984;-1.586;2023-06-26T09:18:21;24.20;50.90
53978;DHT22;39886;47.984;-1.586;2023-06-26T09:20:48;24.10;50.90
53978;DHT22;39886;47.984;-1.586;2023-06-26T09:23:13;24.10;50.70
53978;DHT22;39886;47.984;-1.586;2023-06-26T09:25:40;24.10;51.00
53978;DHT22;39886;47.984;-1.586;2023-06-26T09:28:07;24.20;50.90
53978;DHT22;39886;47.984;-1.586;2023-06-26T09:30:34;24.30;50.80
53978;DHT22;39886;47.984;-1.586;2023-06-26T09:33:20;24.30;50.50
53978;DHT22;39886;47.984;-1.586;2023-06-26T09:35:46;24.30;51.60
53978;DHT22;39886;47.984;-1.586;2023-06-26T09:38:13;24.30;51.50
53978;DHT22;39886;47.984;-1.586;2023-06-26T09:40:39;24.40;50.70
53978;DHT22;39886;47.984;-1.586;2023-06-26T09:43:05;24.40;51.50
53978;DHT22;39886;47.984;-1.586;2023-06-26T09:45:33;24.30;50.50
53978;DHT22;39886;47.984;-1.586;2023-06-26T09:48:03;24.40;50.60
53978;DHT22;39886;47.984;-1.586;2023-06-26T09:50:29;24.40;50.70
53978;DHT22;39886;47.984;-1.586;2023-06-26T09:52:55;24.40;50.30
53978;DHT22;39886;47.984;-1.586;2023-06-26T09:55:21;24.30;50.60
53978;DHT22;39886;47.984;-1.586;2023-06-26T09:57:51;24.50;50.60
53978;DHT22;39886;47.984;-1.586;2023-06-26T10:00:17;24.50;49.90
53978;DHT22;39886;47.984;-1.586;2023-06-26T10:02:44;24.50;49.40
53978;DHT22;39886;47.984;-1.586;2023-06-26T10:05:09;24.60;49.40
53978;DHT22;39886;47.984;-1.586;2023-06-26T10:07:36;24.70;48.30
53978;DHT22;39886;47.984;-1.586;2023-06-26T10:10:03;24.60;47.80
53978;DHT22;39886;47.984;-1.586;2023-06-26T10:12:31;24.70;48.30
53978;DHT22;39886;47.984;-1.586;2023-06-26T10:14:57;24.60;47.40
53978;DHT22;39886;47.984;-1.586;2023-06-26T10:17:28;24.60;46.80
53978;DHT22;39886;47.984;-1.586;2023-06-26T10:19:57;24.60;47.10
53978;DHT22;39886;47.984;-1.586;2023-06-26T10:22:28;24.70;46.20
53978;DHT22;39886;47.984;-1.586;2023-06-26T10:24:58;24.70;47.00
53978;DHT22;39886;47.984;-1.586;2023-06-26T10:27:28;24.60;46.10
53978;DHT22;39886;47.984;-1.586;2023-06-26T10:30:00;24.60;46.60
53978;DHT22;39886;47.984;-1.586;2023-06-26T10:32:28;24.80;46.60
53978;DHT22;39886;47.984;-1.586;2023-06-26T10:34:55;24.70;46.40
53978;DHT22;39886;47.984;-1.586;2023-06-26T10:37:21;24.60;47.50
53978;DHT22;39886;47.984;-1.586;2023-06-26T10:40:06;24.60;47.30
53978;DHT22;39886;47.984;-1.586;2023-06-26T10:42:37;24.70;47.50
53978;DHT22;39886;47.984;-1.586;2023-06-26T10:45:10;24.70;47.90
53978;DHT22;39886;47.984;-1.586;2023-06-26T10:47:40;24.60;47.30
53978;DHT22;39886;47.984;-1.586;2023-06-26T10:50:26;24.60;47.40
53978;DHT22;39886;47.984;-1.586;2023-06-26T10:55:42;24.60;47.50
53978;DHT22;39886;47.984;-1.586;2023-06-26T10:58:33;24.50;47.80
53978;DHT22;39886;47.984;-1.586;2023-06-26T11:03:49;24.60;47.70
53978;DHT22;39886;47.984;-1.586;2023-06-26T11:06:21;24.60;47.20
53978;DHT22;39886;47.984;-1.586;2023-06-26T11:08:51;24.60;47.10
53978;DHT22;39886;47.984;-1.586;2023-06-26T11:11:21;24.60;46.90
53978;DHT22;39886;47.984;-1.586;2023-06-26T11:13:48;24.60;46.90
53978;DHT22;39886;47.984;-1.586;2023-06-26T11:16:14;24.70;47.50
53978;DHT22;39886;47.984;-1.586;2023-06-26T11:18:41;24.80;47.10
53978;DHT22;39886;47.984;-1.586;2023-06-26T11:21:11;24.80;45.40
53978;DHT22;39886;47.984;-1.586;2023-06-26T11:23:40;24.90;45.90
53978;DHT22;39886;47.984;-1.586;2023-06-26T11:26:21;24.90;45.00
53978;DHT22;39886;47.984;-1.586;2023-06-26T11:28:56;25.00;45.00
53978;DHT22;39886;47.984;-1.586;2023-06-26T11:31:30;25.00;44.50
53978;DHT22;39886;47.984;-1.586;2023-06-26T11:34:01;25.00;44.50
53978;DHT22;39886;47.984;-1.586;2023-06-26T11:36:28;25.10;44.90
53978;DHT22;39886;47.984;-1.586;2023-06-26T11:38:59;25.00;45.30
53978;DHT22;39886;47.984;-1.586;2023-06-26T11:41:27;25.00;45.70
53978;DHT22;39886;47.984;-1.586;2023-06-26T11:43:54;25.00;45.90
53978;DHT22;39886;47.984;-1.586;2023-06-26T11:46:21;25.00;46.40
53978;DHT22;39886;47.984;-1.586;2023-06-26T11:48:47;25.00;46.50
53978;DHT22;39886;47.984;-1.586;2023-06-26T11:51:14;25.10;46.50
53978;DHT22;39886;47.984;-1.586;2023-06-26T11:53:41;25.10;46.50
53978;DHT22;39886;47.984;-1.586;2023-06-26T11:56:11;25.10;46.50
53978;DHT22;39886;47.984;-1.586;2023-06-26T11:59:00;25.10;45.90
53978;DHT22;39886;47.984;-1.586;2023-06-26T12:01:42;25.10;46.30
53978;DHT22;39886;47.984;-1.586;2023-06-26T12:04:11;25.10;46.40
53978;DHT22;39886;47.984;-1.586;2023-06-26T12:06:43;25.20;46.50
53978;DHT22;39886;47.984;-1.586;2023-06-26T12:09:11;25.30;46.20
53978;DHT22;39886;47.984;-1.586;2023-06-26T12:11:39;25.30;45.50
53978;DHT22;39886;47.984;-1.586;2023-06-26T12:14:06;25.30;45.20
53978;DHT22;39886;47.984;-1.586;2023-06-26T12:16:36;25.20;45.10
53978;DHT22;39886;47.984;-1.586;2023-06-26T12:19:06;25.20;45.10
53978;DHT22;39886;47.984;-1.586;2023-06-26T12:24:08;25.20;45.20
53978;DHT22;39886;47.984;-1.586;2023-06-26T12:26:35;25.20;45.30
53978;DHT22;39886;47.984;-1.586;2023-06-26T12:29:07;25.20;45.30
53978;DHT22;39886;47.984;-1.586;2023-06-26T12:31:33;25.30;45.80
53978;DHT22;39886;47.984;-1.586;2023-06-26T12:34:00;25.30;45.50
53978;DHT22;39886;47.984;-1.586;2023-06-26T12:36:26;25.20;45.80
53978;DHT22;39886;47.984;-1.586;2023-06-26T12:38:54;25.20;45.60
53978;DHT22;39886;47.984;-1.586;2023-06-26T12:41:24;25.20;45.40
53978;DHT22;39886;47.984;-1.586;2023-06-26T12:43:49;25.10;45.40
53978;DHT22;39886;47.984;-1.586;2023-06-26T12:46:35;25.20;45.70
53978;DHT22;39886;47.984;-1.586;2023-06-26T12:49:01;25.20;45.60
53978;DHT22;39886;47.984;-1.586;2023-06-26T12:51:26;25.30;45.80
53978;DHT22;39886;47.984;-1.586;2023-06-26T12:53:53;25.30;45.40
53978;DHT22;39886;47.984;-1.586;2023-06-26T12:56:18;25.30;45.70
53978;DHT22;39886;47.984;-1.586;2023-06-26T12:58:45;25.40;45.10
53978;DHT22;39886;47.984;-1.586;2023-06-26T13:01:11;25.40;44.90
53978;DHT22;39886;47.984;-1.586;2023-06-26T13:03:39;25.40;44.50
53978;DHT22;39886;47.984;-1.586;2023-06-26T13:06:05;25.30;44.30
53978;DHT22;39886;47.984;-1.586;2023-06-26T13:08:31;25.30;44.10
53978;DHT22;39886;47.984;-1.586;2023-06-26T13:10:57;25.40;44.00
53978;DHT22;39886;47.984;-1.586;2023-06-26T13:13:22;25.50;43.70
53978;DHT22;39886;47.984;-1.586;2023-06-26T13:15:49;25.60;43.70
53978;DHT22;39886;47.984;-1.586;2023-06-26T13:18:15;25.60;43.90
53978;DHT22;39886;47.984;-1.586;2023-06-26T13:20:41;25.60;44.20
53978;DHT22;39886;47.984;-1.586;2023-06-26T13:23:06;25.70;43.60
53978;DHT22;39886;47.984;-1.586;2023-06-26T13:25:33;25.70;43.70
53978;DHT22;39886;47.984;-1.586;2023-06-26T13:27:58;25.80;43.40
53978;DHT22;39886;47.984;-1.586;2023-06-26T13:30:24;25.70;43.00
53978;DHT22;39886;47.984;-1.586;2023-06-26T13:32:50;25.70;43.30
53978;DHT22;39886;47.984;-1.586;2023-06-26T13:35:16;25.80;43.10
53978;DHT22;39886;47.984;-1.586;2023-06-26T13:37:42;25.70;43.40
53978;DHT22;39886;47.984;-1.586;2023-06-26T13:40:08;25.80;43.20
53978;DHT22;39886;47.984;-1.586;2023-06-26T13:42:35;25.80;43.10
53978;DHT22;39886;47.984;-1.586;2023-06-26T13:45:02;25.80;43.20
53978;DHT22;39886;47.984;-1.586;2023-06-26T13:47:28;25.80;42.50
53978;DHT22;39886;47.984;-1.586;2023-06-26T13:49:54;25.80;42.40
53978;DHT22;39886;47.984;-1.586;2023-06-26T13:52:20;25.80;42.30
53978;DHT22;39886;47.984;-1.586;2023-06-26T13:54:46;25.70;42.10
53978;DHT22;39886;47.984;-1.586;2023-06-26T13:57:11;25.80;42.60
53978;DHT22;39886;47.984;-1.586;2023-06-26T13:59:38;25.80;42.50
53978;DHT22;39886;47.984;-1.586;2023-06-26T14:02:08;25.80;42.70
53978;DHT22;39886;47.984;-1.586;2023-06-26T14:04:33;25.80;42.90
53978;DHT22;39886;47.984;-1.586;2023-06-26T14:06:59;25.90;43.00
53978;DHT22;39886;47.984;-1.586;2023-06-26T14:09:25;25.90;43.20
53978;DHT22;39886;47.984;-1.586;2023-06-26T14:11:51;25.90;43.50
53978;DHT22;39886;47.984;-1.586;2023-06-26T14:14:16;25.90;43.10
53978;DHT22;39886;47.984;-1.586;2023-06-26T14:16:42;25.90;43.40
53978;DHT22;39886;47.984;-1.586;2023-06-26T14:19:08;25.90;43.40
53978;DHT22;39886;47.984;-1.586;2023-06-26T14:21:40;26.00;43.80
53978;DHT22;39886;47.984;-1.586;2023-06-26T14:24:06;26.00;43.40
53978;DHT22;39886;47.984;-1.586;2023-06-26T14:26:31;26.00;43.00
53978;DHT22;39886;47.984;-1.586;2023-06-26T14:29:02;26.00;42.40
53978;DHT22;39886;47.984;-1.586;2023-06-26T14:31:28;26.00;42.60
53978;DHT22;39886;47.984;-1.586;2023-06-26T14:33:53;26.00;42.20
53978;DHT22;39886;47.984;-1.586;2023-06-26T14:36:19;26.00;42.10
53978;DHT22;39886;47.984;-1.586;2023-06-26T14:38:45;25.90;42.20
53978;DHT22;39886;47.984;-1.586;2023-06-26T14:41:11;26.00;42.50
53978;DHT22;39886;47.984;-1.586;2023-06-26T14:43:38;25.90;43.00
53978;DHT22;39886;47.984;-1.586;2023-06-26T14:46:04;25.90;43.40
53978;DHT22;39886;47.984;-1.586;2023-06-26T14:48:30;25.90;43.50
53978;DHT22;39886;47.984;-1.586;2023-06-26T14:50:55;25.90;43.40
53978;DHT22;39886;47.984;-1.586;2023-06-26T14:53:21;26.00;43.00
53978;DHT22;39886;47.984;-1.586;2023-06-26T14:55:47;26.00;43.00
53978;DHT22;39886;47.984;-1.586;2023-06-26T14:58:13;26.00;43.70
53978;DHT22;39886;47.984;-1.586;2023-06-26T15:00:38;26.00;43.50
53978;DHT22;39886;47.984;-1.586;2023-06-26T15:03:04;26.00;43.20
53978;DHT22;39886;47.984;-1.586;2023-06-26T15:05:30;26.10;43.30
53978;DHT22;39886;47.984;-1.586;2023-06-26T15:07:56;26.10;43.40
53978;DHT22;39886;47.984;-1.586;2023-06-26T15:10:21;26.00;43.80
53978;DHT22;39886;47.984;-1.586;2023-06-26T15:12:47;26.10;43.90
53978;DHT22;39886;47.984;-1.586;2023-06-26T15:15:13;26.10;43.80
53978;DHT22;39886;47.984;-1.586;2023-06-26T15:17:39;26.10;44.00
53978;DHT22;39886;47.984;-1.586;2023-06-26T15:20:05;26.10;44.10
53978;DHT22;39886;47.984;-1.586;2023-06-26T15:22:31;26.00;44.30
53978;DHT22;39886;47.984;-1.586;2023-06-26T15:24:57;26.00;44.50
53978;DHT22;39886;47.984;-1.586;2023-06-26T15:27:23;26.00;44.50
53978;DHT22;39886;47.984;-1.586;2023-06-26T15:29:48;26.00;44.20
53978;DHT22;39886;47.984;-1.586;2023-06-26T15:32:14;26.00;43.80
53978;DHT22;39886;47.984;-1.586;2023-06-26T15:34:41;26.00;43.70